Time;durP1;ratioP1;P1;durP2;ratioP2;P2;SDS_P1;SDS_P2;PMS_P1;PMS_P2;Temp;Humidity;BMP_temperature;BMP_pressure;BME280_temperature;BME280_humidity;BME280_pressure;Samples;Min_cycle;Max_cycle;Signal;HPM_P1;HPM_P2
2022/05/29 00:00:15;;;;;;;7.68;1.92;;;11.30;99.90;;;;;;5064199;28;20045;-62
2022/05/29 00:02:41;;;;;;;5.22;1.70;;;11.30;99.90;;;;;;5058922;28;20052;-62
2022/05/29 00:05:08;;;;;;;6.00;1.70;;;11.30;99.90;;;;;;5056199;28;20072;-62
2022/05/29 00:07:35;;;;;;;6.70;1.92;;;11.20;99.90;;;;;;5055246;28;20033;-62
2022/05/29 00:10:04;;;;;;;7.25;2.13;;;11.30;99.90;;;;;;5061309;28;20049;-62
2022/05/29 00:12:29;;;;;;;6.05;2.17;;;11.20;99.90;;;;;;5066578;28;20098;-62
2022/05/29 00:14:55;;;;;;;4.63;1.85;;;11.20;99.90;;;;;;5057067;28;20480;-62
2022/05/29 00:17:21;;;;;;;6.15;2.00;;;11.20;99.90;;;;;;5056047;28;20041;-62
2022/05/29 00:19:47;;;;;;;5.80;1.83;;;11.20;99.90;;;;;;5063234;28;20036;-63
2022/05/29 00:22:16;;;;;;;9.75;2.15;;;11.20;99.90;;;;;;5058641;28;20088;-63
2022/05/29 00:24:44;;;;;;;6.40;1.73;;;11.20;99.90;;;;;;5063629;28;20147;-63
2022/05/29 00:27:11;;;;;;;5.70;1.77;;;11.20;99.90;;;;;;5066285;28;20148;-63
2022/05/29 00:29:37;;;;;;;6.43;1.80;;;11.30;99.90;;;;;;5067815;28;20045;-61
2022/05/29 00:32:04;;;;;;;6.32;2.33;;;11.30;99.90;;;;;;5070150;28;20056;-62
2022/05/29 00:34:30;;;;;;;7.40;1.90;;;11.30;99.90;;;;;;5069445;28;20078;-62
2022/05/29 00:36:58;;;;;;;7.40;1.98;;;11.20;99.90;;;;;;5067481;28;20036;-63
2022/05/29 00:39:25;;;;;;;5.78;1.67;;;11.20;99.90;;;;;;5059507;28;20098;-63
2022/05/29 00:41:51;;;;;;;5.90;1.92;;;11.30;99.90;;;;;;5068979;28;20040;-63
2022/05/29 00:44:21;;;;;;;7.15;2.00;;;11.30;99.90;;;;;;5063985;28;20095;-63
2022/05/29 00:46:56;;;;;;;6.63;2.20;;;11.30;99.90;;;;;;5071993;28;20090;-63
2022/05/29 00:49:29;;;;;;;;;;;11.30;99.90;;;;;;5065402;28;20510;-63
2022/05/29 00:51:58;;;;;;;8.32;2.15;;;11.30;99.90;;;;;;5070921;28;19920;-63
2022/05/29 00:54:24;;;;;;;5.47;1.95;;;11.40;99.90;;;;;;5065928;28;20045;-63
2022/05/29 00:56:52;;;;;;;6.10;2.00;;;11.30;99.90;;;;;;5070277;28;20040;-63
2022/05/29 00:59:23;;;;;;;5.50;1.80;;;11.40;99.90;;;;;;5066339;28;20063;-63
2022/05/29 01:01:51;;;;;;;10.18;2.63;;;11.40;99.90;;;;;;5062028;28;20395;-62
2022/05/29 01:04:17;;;;;;;6.97;2.10;;;11.40;99.90;;;;;;5067614;28;20090;-63
2022/05/29 01:06:42;;;;;;;6.03;2.00;;;11.40;99.90;;;;;;5070945;28;20064;-63
2022/05/29 01:09:10;;;;;;;7.55;1.80;;;11.40;99.90;;;;;;5067365;28;20075;-63
2022/05/29 01:11:58;;;;;;;6.07;1.77;;;11.50;99.90;;;;;;5068781;28;20071;-63
2022/05/29 01:14:38;;;;;;;5.65;2.03;;;11.50;99.90;;;;;;5077231;28;20163;-63
2022/05/29 01:17:27;;;;;;;7.32;1.90;;;11.50;99.90;;;;;;5067885;28;20129;-63
2022/05/29 01:20:01;;;;;;;5.57;1.95;;;11.50;99.90;;;;;;5066517;28;20535;-63
2022/05/29 01:22:35;;;;;;;12.75;3.05;;;11.50;99.90;;;;;;5066564;28;20053;-63
2022/05/29 01:25:17;;;;;;;6.97;2.30;;;11.50;99.90;;;;;;5068027;28;20048;-63
2022/05/29 01:28:15;;;;;;;6.80;2.15;;;11.50;99.90;;;;;;5062264;28;20051;-63
2022/05/29 01:30:55;;;;;;;8.05;2.30;;;11.50;99.90;;;;;;5066448;28;20068;-63
2022/05/29 01:33:48;;;;;;;9.57;2.28;;;11.50;99.90;;;;;;5065160;28;20048;-63
2022/05/29 01:36:33;;;;;;;8.02;2.42;;;11.50;99.90;;;;;;5063435;28;20037;-63
2022/05/29 01:39:05;;;;;;;7.30;2.10;;;11.40;99.90;;;;;;5061510;28;20115;-63
2022/05/29 01:41:35;;;;;;;8.55;2.65;;;11.30;99.90;;;;;;5065273;28;20040;-63
2022/05/29 01:44:19;;;;;;;8.68;2.85;;;11.30;99.90;;;;;;5066494;28;20387;-63
2022/05/29 01:46:49;;;;;;;14.38;2.65;;;11.30;99.90;;;;;;5063134;28;20355;-63
2022/05/29 01:49:28;;;;;;;9.48;2.50;;;11.30;99.90;;;;;;5068292;28;20113;-63
2022/05/29 01:52:15;;;;;;;7.25;2.45;;;11.30;99.90;;;;;;5069454;28;20036;-63
2022/05/29 01:54:52;;;;;;;11.18;2.63;;;11.30;99.90;;;;;;5066873;28;20032;-63
2022/05/29 01:57:23;;;;;;;10.23;2.72;;;11.30;99.90;;;;;;5070083;28;20032;-63
2022/05/29 02:00:00;;;;;;;7.85;2.50;;;11.30;99.90;;;;;;5063318;28;20060;-63
2022/05/29 02:02:31;;;;;;;9.77;2.90;;;11.30;99.90;;;;;;5066028;28;20040;-63
2022/05/29 02:05:01;;;;;;;11.40;2.97;;;11.20;99.90;;;;;;5065469;28;20047;-62
2022/05/29 02:07:48;;;;;;;8.50;2.45;;;11.20;99.90;;;;;;5065540;28;20045;-63
2022/05/29 02:10:28;;;;;;;13.27;2.60;;;11.20;99.90;;;;;;5066164;28;20045;-62
2022/05/29 02:13:13;;;;;;;8.52;2.80;;;11.20;99.90;;;;;;5058191;28;20054;-63
2022/05/29 02:15:55;;;;;;;10.13;3.22;;;11.20;99.90;;;;;;5064918;28;20040;-63
2022/05/29 02:18:34;;;;;;;9.50;2.58;;;11.10;99.90;;;;;;5059405;28;20040;-63
2022/05/29 02:21:08;;;;;;;7.80;2.20;;;11.00;99.90;;;;;;5069976;28;20048;-63
2022/05/29 02:23:47;;;;;;;11.70;2.78;;;11.00;99.90;;;;;;5057160;28;20041;-63
2022/05/29 02:26:23;;;;;;;8.70;2.80;;;11.00;99.90;;;;;;5062914;28;20137;-63
2022/05/29 02:28:54;;;;;;;8.82;2.10;;;11.10;99.90;;;;;;5068377;28;20048;-63
2022/05/29 02:32:00;;;;;;;7.93;2.60;;;11.10;99.90;;;;;;5063513;28;20045;-63
2022/05/29 02:34:59;;;;;;;7.18;2.45;;;11.10;99.90;;;;;;5069068;28;20066;-63
2022/05/29 02:37:46;;;;;;;9.70;2.20;;;11.10;99.90;;;;;;5055711;28;20049;-62
2022/05/29 02:40:32;;;;;;;8.35;2.30;;;11.00;99.90;;;;;;5068681;28;20090;-63
2022/05/29 02:43:16;;;;;;;8.27;2.40;;;11.00;99.90;;;;;;5063795;28;20052;-63
2022/05/29 02:45:56;;;;;;;8.55;2.10;;;11.00;99.90;;;;;;5066011;28;20067;-63
2022/05/29 02:48:35;;;;;;;10.80;2.60;;;11.00;99.90;;;;;;5060623;28;20460;-63
2022/05/29 02:51:25;;;;;;;11.63;2.72;;;11.00;99.90;;;;;;5069095;28;20111;-63
2022/05/29 02:53:51;;;;;;;10.75;2.40;;;11.00;99.90;;;;;;5062511;28;20045;-63
2022/05/29 02:56:16;;;;;;;9.60;2.60;;;11.00;99.90;;;;;;5062160;28;20047;-64
2022/05/29 02:58:46;;;;;;;11.38;2.63;;;11.00;99.90;;;;;;5066533;28;20037;-63
2022/05/29 03:01:27;;;;;;;9.13;1.98;;;11.00;99.90;;;;;;5060896;28;20041;-63
2022/05/29 03:04:14;;;;;;;9.95;2.50;;;11.10;99.90;;;;;;5062378;28;20040;-63
2022/05/29 03:07:01;;;;;;;5.95;2.20;;;11.00;99.90;;;;;;5068236;28;20074;-63
2022/05/29 03:09:44;;;;;;;7.82;2.40;;;11.00;99.90;;;;;;5061876;28;20156;-63
2022/05/29 03:12:42;;;;;;;9.20;2.10;;;11.00;99.90;;;;;;5060429;28;20040;-64
2022/05/29 03:15:33;;;;;;;11.55;2.47;;;11.00;99.90;;;;;;5064718;28;20385;-64
2022/05/29 03:18:05;;;;;;;9.35;2.15;;;11.00;99.90;;;;;;5059741;28;20086;-64
2022/05/29 03:20:52;;;;;;;12.18;2.60;;;10.90;99.90;;;;;;5060977;28;20044;-63
2022/05/29 03:23:40;;;;;;;8.07;2.42;;;11.00;99.90;;;;;;5057311;28;20036;-63
2022/05/29 03:26:21;;;;;;;7.07;2.47;;;11.00;99.90;;;;;;5059484;28;20048;-63
2022/05/29 03:28:59;;;;;;;6.25;2.08;;;11.00;99.90;;;;;;5059866;28;20119;-63
2022/05/29 03:31:27;;;;;;;8.30;2.50;;;11.00;99.90;;;;;;5063174;28;20995;-63
2022/05/29 03:33:53;;;;;;;9.75;2.50;;;11.00;99.90;;;;;;5059819;28;20110;-62
2022/05/29 03:36:18;;;;;;;13.57;3.03;;;11.00;99.90;;;;;;5066520;28;20040;-63
2022/05/29 03:38:47;;;;;;;11.13;2.78;;;11.00;99.90;;;;;;5057908;28;20059;-63
2022/05/29 03:41:27;;;;;;;9.93;3.08;;;11.00;99.90;;;;;;5067440;28;20383;-63
2022/05/29 03:43:53;;;;;;;9.75;2.33;;;11.00;99.90;;;;;;5061355;28;20064;-63
2022/05/29 03:46:18;;;;;;;8.57;2.58;;;10.90;99.90;;;;;;5062708;28;20040;-63
2022/05/29 03:48:44;;;;;;;8.73;2.83;;;10.90;99.90;;;;;;5067319;28;20059;-62
2022/05/29 03:51:09;;;;;;;7.97;2.72;;;10.90;99.90;;;;;;5063263;28;20040;-63
2022/05/29 03:53:35;;;;;;;8.68;2.45;;;10.80;99.90;;;;;;5056868;28;20975;-63
2022/05/29 03:56:01;;;;;;;10.70;2.47;;;10.80;99.90;;;;;;5064055;28;20064;-63
2022/05/29 03:58:26;;;;;;;7.50;2.55;;;10.80;99.90;;;;;;5063310;28;20453;-63
2022/05/29 04:00:52;;;;;;;9.38;2.65;;;10.80;99.90;;;;;;5060626;28;20127;-63
2022/05/29 04:03:18;;;;;;;10.43;2.92;;;10.80;99.90;;;;;;5068609;28;20052;-63
2022/05/29 04:05:44;;;;;;;8.73;2.60;;;10.80;99.90;;;;;;5066627;28;20106;-63
2022/05/29 04:13:41;;;;;;;11.15;2.67;;;10.80;99.90;;;;;;5061578;28;20052;-63
2022/05/29 04:16:07;;;;;;;9.52;2.80;;;10.80;99.90;;;;;;5068871;28;20361;-63
2022/05/29 04:18:32;;;;;;;10.88;2.65;;;10.70;99.90;;;;;;5063806;28;20052;-63
2022/05/29 04:20:58;;;;;;;13.48;3.45;;;10.70;99.90;;;;;;5070119;28;20037;-62
2022/05/29 04:23:23;;;;;;;13.23;3.67;;;10.70;99.90;;;;;;5067767;28;20040;-62
2022/05/29 04:25:49;;;;;;;9.23;2.72;;;10.70;99.90;;;;;;5071364;28;20117;-62
2022/05/29 04:28:15;;;;;;;8.15;2.55;;;10.70;99.90;;;;;;5068857;28;20047;-61
2022/05/29 04:30:40;;;;;;;8.50;2.83;;;10.70;99.90;;;;;;5065255;28;20486;-61
2022/05/29 04:33:06;;;;;;;8.48;2.60;;;10.80;99.90;;;;;;5068259;28;20103;-62
2022/05/29 04:35:38;;;;;;;8.40;2.42;;;10.80;99.90;;;;;;5063992;28;20044;-62
2022/05/29 04:38:04;;;;;;;10.60;2.55;;;10.80;99.90;;;;;;5070825;28;20053;-62
2022/05/29 04:40:31;;;;;;;9.60;2.70;;;10.90;99.90;;;;;;5059734;28;20043;-62
2022/05/29 04:42:56;;;;;;;8.57;2.17;;;10.90;99.90;;;;;;5071754;28;20435;-62
2022/05/29 04:45:22;;;;;;;10.48;2.47;;;11.00;99.90;;;;;;5067126;28;20052;-62
2022/05/29 04:47:48;;;;;;;9.05;2.22;;;11.00;99.90;;;;;;5069021;28;20064;-62
2022/05/29 04:50:14;;;;;;;7.38;2.08;;;11.10;99.90;;;;;;5071173;28;20127;-62
2022/05/29 04:52:40;;;;;;;6.75;2.20;;;11.20;99.90;;;;;;5067366;28;20038;-62
2022/05/29 04:55:07;;;;;;;6.90;2.40;;;11.20;99.90;;;;;;5068521;28;20040;-62
2022/05/29 04:57:33;;;;;;;8.05;2.45;;;11.30;99.90;;;;;;5064539;28;20145;-62
2022/05/29 04:59:59;;;;;;;10.10;2.60;;;11.30;99.90;;;;;;5066769;28;20051;-62
2022/05/29 05:02:25;;;;;;;13.65;2.78;;;11.40;99.90;;;;;;5069253;28;20047;-63
2022/05/29 05:04:51;;;;;;;7.72;2.22;;;11.40;99.90;;;;;;5066389;28;20455;-61
2022/05/29 05:07:17;;;;;;;8.63;2.80;;;11.30;99.90;;;;;;5065790;28;20044;-61
2022/05/29 05:09:42;;;;;;;7.32;2.30;;;11.40;99.90;;;;;;5076658;28;20086;-62
2022/05/29 05:12:08;;;;;;;8.77;2.28;;;11.40;99.90;;;;;;5062982;28;20036;-62
2022/05/29 05:14:35;;;;;;;7.35;2.33;;;11.40;99.90;;;;;;5065200;28;20131;-62
2022/05/29 05:17:01;;;;;;;10.38;2.38;;;11.40;99.90;;;;;;5068198;28;20064;-62
2022/05/29 05:19:26;;;;;;;8.10;2.22;;;11.50;99.90;;;;;;5069147;28;20576;-62
2022/05/29 05:21:52;;;;;;;9.50;2.05;;;11.50;99.90;;;;;;5068213;28;20479;-63
2022/05/29 05:24:18;;;;;;;7.50;1.85;;;11.50;99.90;;;;;;5066261;28;20037;-63
2022/05/29 05:26:44;;;;;;;10.40;2.75;;;11.60;99.90;;;;;;5065037;28;20083;-63
2022/05/29 05:29:10;;;;;;;8.68;2.17;;;11.60;99.90;;;;;;5067052;28;20084;-63
2022/05/29 05:31:35;;;;;;;10.77;2.60;;;11.60;99.90;;;;;;5069378;28;20052;-63
2022/05/29 05:34:02;;;;;;;12.27;3.05;;;11.60;99.90;;;;;;5063886;28;20055;-63
2022/05/29 05:36:28;;;;;;;9.38;2.65;;;11.60;99.90;;;;;;5062767;28;20052;-63
2022/05/29 05:38:53;;;;;;;10.30;2.30;;;11.60;99.90;;;;;;5056528;28;20448;-64
2022/05/29 05:41:20;;;;;;;7.85;2.40;;;11.60;99.90;;;;;;5067367;28;20459;-63
2022/05/29 05:43:46;;;;;;;10.85;2.75;;;11.70;99.90;;;;;;5060982;28;20186;-63
2022/05/29 05:46:13;;;;;;;9.02;2.60;;;11.80;99.90;;;;;;5068408;28;20123;-66
2022/05/29 05:48:39;;;;;;;6.55;2.05;;;11.70;99.90;;;;;;5058472;28;20049;-64
2022/05/29 05:51:06;;;;;;;7.28;2.20;;;11.70;99.90;;;;;;5068914;28;20447;-64
2022/05/29 05:53:32;;;;;;;7.35;1.98;;;11.70;99.90;;;;;;5063078;28;20049;-64
2022/05/29 05:55:58;;;;;;;8.98;2.00;;;11.90;99.90;;;;;;5069805;28;20036;-64
2022/05/29 05:58:23;;;;;;;8.18;1.98;;;11.90;99.90;;;;;;5061459;28;20240;-63
2022/05/29 06:00:50;;;;;;;7.00;1.90;;;12.00;99.90;;;;;;5063710;28;20090;-63
2022/05/29 06:03:16;;;;;;;7.70;1.88;;;12.00;99.90;;;;;;5062266;28;20412;-63
2022/05/29 06:05:42;;;;;;;6.65;2.03;;;12.20;99.90;;;;;;5066098;28;20531;-61
2022/05/29 06:08:08;;;;;;;8.13;1.77;;;12.30;99.90;;;;;;5065877;28;20123;-61
2022/05/29 06:10:34;;;;;;;8.43;1.98;;;12.40;99.90;;;;;;5072219;28;20184;-62
2022/05/29 06:13:04;;;;;;;8.02;1.98;;;12.40;99.90;;;;;;5068121;28;20089;-62
2022/05/29 06:15:31;;;;;;;9.55;1.83;;;12.60;99.90;;;;;;5059912;28;20167;-62
2022/05/29 06:17:56;;;;;;;6.25;1.60;;;12.70;99.90;;;;;;5061647;28;20044;-62
2022/05/29 06:20:24;;;;;;;8.30;1.83;;;12.90;99.90;;;;;;5068091;28;20424;-63
2022/05/29 06:22:50;;;;;;;7.32;1.75;;;13.00;99.90;;;;;;5056657;28;20047;-62
2022/05/29 06:25:16;;;;;;;7.47;1.95;;;13.20;99.90;;;;;;5062705;28;20531;-63
2022/05/29 06:27:43;;;;;;;6.03;1.80;;;13.10;99.90;;;;;;5068513;28;20140;-64
2022/05/29 06:30:12;;;;;;;5.80;1.95;;;13.20;99.90;;;;;;5058042;28;20055;-63
2022/05/29 06:32:38;;;;;;;10.27;1.90;;;13.30;99.90;;;;;;5062677;28;20056;-62
2022/05/29 06:35:06;;;;;;;9.65;2.25;;;13.40;99.90;;;;;;5065658;28;20056;-63
2022/05/29 06:37:31;;;;;;;8.75;2.17;;;13.40;99.90;;;;;;5062770;28;20141;-63
2022/05/29 06:39:58;;;;;;;7.40;2.08;;;13.40;99.90;;;;;;5062900;28;20082;-63
2022/05/29 06:42:24;;;;;;;8.15;1.80;;;13.50;99.90;;;;;;5063539;28;20044;-63
2022/05/29 06:44:49;;;;;;;7.93;1.85;;;13.50;99.90;;;;;;5067676;28;20067;-63
2022/05/29 06:47:15;;;;;;;9.73;1.88;;;13.50;99.90;;;;;;5071451;28;20098;-63
2022/05/29 06:49:41;;;;;;;10.85;2.65;;;13.40;99.90;;;;;;5064899;28;20106;-63
2022/05/29 06:52:08;;;;;;;9.02;2.17;;;13.40;99.90;;;;;;5065926;28;20127;-62
2022/05/29 06:54:35;;;;;;;12.15;2.35;;;13.40;99.90;;;;;;5070128;28;20055;-63
2022/05/29 06:57:01;;;;;;;12.13;2.45;;;13.20;99.90;;;;;;5069146;28;20147;-63
2022/05/29 06:59:26;;;;;;;8.55;1.83;;;13.10;99.90;;;;;;5050936;28;20132;-63
2022/05/29 07:07:22;;;;;;;10.90;2.17;;;12.80;99.90;;;;;;5061467;28;21689;-63
2022/05/29 07:09:49;;;;;;;8.82;1.85;;;12.70;99.90;;;;;;5063722;28;20044;-63
2022/05/29 07:12:19;;;;;;;11.52;2.10;;;12.80;99.90;;;;;;5058124;28;20124;-62
2022/05/29 07:14:56;;;;;;;11.88;2.25;;;12.80;99.90;;;;;;5068182;28;20032;-62
2022/05/29 07:17:22;;;;;;;8.70;1.83;;;12.80;99.90;;;;;;5068659;28;20036;-62
2022/05/29 07:19:48;;;;;;;7.35;1.77;;;12.90;99.90;;;;;;5069256;28;20479;-62
2022/05/29 07:22:14;;;;;;;8.80;1.98;;;13.00;99.90;;;;;;5068328;28;20079;-62
2022/05/29 07:24:41;;;;;;;7.50;1.70;;;13.10;99.90;;;;;;5069880;28;20123;-62
2022/05/29 07:27:07;;;;;;;11.98;2.15;;;13.10;99.90;;;;;;5069348;28;20141;-63
2022/05/29 07:29:33;;;;;;;10.10;2.00;;;13.00;99.90;;;;;;5069701;28;20036;-63
2022/05/29 07:32:00;;;;;;;7.55;1.52;;;13.20;99.90;;;;;;5066907;28;20143;-62
2022/05/29 07:34:26;;;;;;;7.68;1.60;;;13.10;99.90;;;;;;5063513;28;20116;-62
2022/05/29 07:36:52;;;;;;;8.57;1.95;;;13.20;99.90;;;;;;5066805;28;20123;-63
2022/05/29 07:39:19;;;;;;;10.15;2.13;;;13.20;99.90;;;;;;5069773;28;20105;-63
2022/05/29 07:44:29;;;;;;;9.90;2.23;;;13.20;99.90;;;;;;5065509;28;20100;-62
2022/05/29 07:46:56;;;;;;;10.07;1.85;;;13.30;99.90;;;;;;5066832;28;20063;-62
2022/05/29 07:49:23;;;;;;;11.18;2.08;;;13.40;99.90;;;;;;5058563;28;20152;-62
2022/05/29 07:51:49;;;;;;;10.20;1.70;;;13.30;99.90;;;;;;5062041;28;20436;-62
2022/05/29 07:54:15;;;;;;;10.10;1.70;;;13.30;99.90;;;;;;5064515;28;20047;-62
2022/05/29 07:56:41;;;;;;;9.27;2.22;;;13.30;99.90;;;;;;5065465;28;20391;-62
2022/05/29 07:59:07;;;;;;;8.57;2.13;;;13.20;99.90;;;;;;5080741;28;20047;-62
2022/05/29 08:01:33;;;;;;;8.98;1.95;;;13.10;99.90;;;;;;5067251;28;20052;-62
2022/05/29 08:03:58;;;;;;;9.13;1.90;;;13.10;99.90;;;;;;5069572;28;20109;-63
2022/05/29 08:06:25;;;;;;;9.32;1.58;;;13.00;99.90;;;;;;5069605;28;20519;-63
2022/05/29 08:08:50;;;;;;;11.70;1.80;;;13.00;99.90;;;;;;5056841;28;20049;-63
2022/05/29 08:11:17;;;;;;;8.10;1.73;;;12.90;99.90;;;;;;5062341;28;20041;-63
2022/05/29 08:13:44;;;;;;;7.57;1.67;;;13.00;99.90;;;;;;5075073;28;20143;-62
2022/05/29 08:16:10;;;;;;;9.43;2.28;;;13.20;99.90;;;;;;5076565;28;20052;-62
2022/05/29 08:18:35;;;;;;;8.90;1.98;;;13.30;99.90;;;;;;5062042;28;20094;-62
2022/05/29 08:21:01;;;;;;;7.90;1.70;;;13.40;99.90;;;;;;5066227;28;20419;-63
2022/05/29 08:23:26;;;;;;;7.93;1.90;;;13.70;99.90;;;;;;5068544;28;20045;-63
2022/05/29 08:31:12;;;;;;;8.48;1.60;;;14.10;99.90;;;;;;5058308;28;20048;-63
2022/05/29 08:33:38;;;;;;;5.47;1.42;;;14.20;99.90;;;;;;5071981;28;20056;-63
2022/05/29 08:36:24;;;;;;;5.03;1.20;;;14.30;99.90;;;;;;5069812;28;20040;-62
2022/05/29 08:38:52;;;;;;;7.25;1.60;;;14.30;99.90;;;;;;5059914;28;20052;-63
2022/05/29 08:41:53;;;;;;;7.00;1.58;;;14.30;99.90;;;;;;5059037;28;20052;-63
2022/05/29 08:44:47;;;;;;;8.15;1.50;;;14.10;99.90;;;;;;5053275;28;20144;-63
2022/05/29 08:47:15;;;;;;;7.75;1.48;;;14.20;99.90;;;;;;5065488;28;20163;-62
2022/05/29 08:49:45;;;;;;;9.82;1.98;;;14.10;99.90;;;;;;5064639;28;20072;-62
2022/05/29 08:52:41;;;;;;;7.97;1.48;;;14.20;99.90;;;;;;5062576;28;20504;-63
2022/05/29 08:55:19;;;;;;;8.30;1.60;;;14.20;99.90;;;;;;5068067;28;20044;-62
2022/05/29 08:58:14;;;;;;;9.85;1.70;;;14.20;99.90;;;;;;5064209;28;20074;-62
2022/05/29 09:00:46;;;;;;;5.45;1.70;;;14.20;99.90;;;;;;5065035;28;20043;-62
2022/05/29 09:03:31;;;;;;;7.63;1.40;;;14.40;99.90;;;;;;5069947;28;20048;-62
2022/05/29 09:06:18;;;;;;;6.43;1.20;;;14.90;99.90;;;;;;5062936;28;20551;-62
2022/05/29 09:09:01;;;;;;;5.00;1.30;;;15.10;99.90;;;;;;5061866;28;20128;-62
2022/05/29 09:11:34;;;;;;;8.40;1.40;;;15.40;97.70;;;;;;5069028;28;20717;-62
2022/05/29 09:14:31;;;;;;;7.63;1.58;;;15.60;99.20;;;;;;5066374;28;20102;-62
2022/05/29 09:17:02;;;;;;;10.00;1.23;;;15.90;98.80;;;;;;5077184;28;20048;-62
2022/05/29 09:19:53;;;;;;;4.03;1.13;;;16.00;98.40;;;;;;5053312;28;20062;-62
2022/05/29 09:22:24;;;;;;;7.82;1.40;;;16.10;96.80;;;;;;5064335;28;20091;-62
2022/05/29 09:25:04;;;;;;;5.38;1.20;;;15.80;97.40;;;;;;5065742;28;20333;-62
2022/05/29 09:27:31;;;;;;;4.63;1.00;;;15.90;96.80;;;;;;5067675;28;20044;-62
2022/05/29 09:29:57;;;;;;;5.63;1.20;;;15.90;97.10;;;;;;5070976;28;20402;-62
2022/05/29 09:32:26;;;;;;;5.28;1.15;;;15.80;96.20;;;;;;5071896;28;20044;-62
2022/05/29 09:35:11;;;;;;;5.15;1.23;;;15.80;96.50;;;;;;5069471;28;20163;-62
2022/05/29 09:38:10;;;;;;;7.68;1.42;;;16.10;96.80;;;;;;5070777;28;20485;-62
2022/05/29 09:41:04;;;;;;;6.00;1.33;;;16.30;96.60;;;;;;5067329;28;20075;-63
2022/05/29 09:43:30;;;;;;;5.32;1.17;;;16.30;96.90;;;;;;5067139;28;20538;-62
2022/05/29 09:46:15;;;;;;;5.80;1.00;;;16.50;95.60;;;;;;5072838;28;20060;-62
2022/05/29 09:51:29;;;;;;;2.90;0.75;;;16.50;94.00;;;;;;5064894;28;20048;-63
2022/05/29 09:54:03;;;;;;;3.97;1.00;;;16.80;93.40;;;;;;5066841;28;20045;-62
2022/05/29 09:56:31;;;;;;;4.00;0.85;;;16.80;92.40;;;;;;5070463;28;20048;-62
2022/05/29 09:59:19;;;;;;;5.07;1.10;;;16.90;92.60;;;;;;5071431;28;20092;-63
2022/05/29 10:01:46;;;;;;;6.40;1.38;;;17.00;92.50;;;;;;5069402;28;20128;-62
2022/05/29 10:04:11;;;;;;;5.55;1.10;;;16.90;92.30;;;;;;5061233;28;20048;-62
2022/05/29 10:06:42;;;;;;;5.70;1.10;;;16.80;92.60;;;;;;5062579;28;20405;-62
2022/05/29 10:09:22;;;;;;;5.28;1.10;;;16.70;93.10;;;;;;5067616;28;20132;-63
